createdAt,value
2023-05-13T00:00:07.019Z,9.79
2023-05-13T00:02:36.655Z,9.55
2023-05-13T00:05:04.024Z,9.41
2023-05-13T00:07:31.291Z,9.39
2023-05-13T00:09:58.539Z,9.35
2023-05-13T00:12:25.624Z,9.32
2023-05-13T00:14:52.726Z,9.34
2023-05-13T00:17:19.849Z,9.33
2023-05-13T00:19:47.037Z,9.30
2023-05-13T00:22:14.167Z,9.31
2023-05-13T00:24:41.183Z,9.32
2023-05-13T00:27:08.741Z,9.17
2023-05-13T00:29:36.196Z,9.10
2023-05-13T00:32:03.666Z,9.08
2023-05-13T00:34:31.058Z,9.08
2023-05-13T00:36:58.210Z,9.02
2023-05-13T00:39:25.576Z,9.00
2023-05-13T00:41:52.649Z,9.02
2023-05-13T00:44:19.885Z,9.04
2023-05-13T00:46:47.106Z,8.99
2023-05-13T00:49:14.241Z,8.96
2023-05-13T00:51:41.342Z,8.90
2023-05-13T00:54:08.462Z,8.83
2023-05-13T00:56:38.140Z,8.76
2023-05-13T00:59:05.425Z,8.71
2023-05-13T01:01:51.982Z,8.66
2023-05-13T01:04:44.120Z,8.61
2023-05-13T01:07:23.138Z,8.64
2023-05-13T01:09:55.374Z,8.62
2023-05-13T01:12:29.371Z,8.63
2023-05-13T01:15:05.804Z,8.58
2023-05-13T01:18:11.819Z,8.54
2023-05-13T01:20:42.652Z,8.57
2023-05-13T01:23:11.549Z,8.60
2023-05-13T01:25:40.289Z,8.62
2023-05-13T01:28:08.182Z,8.67
2023-05-13T01:30:36.960Z,8.76
2023-05-13T01:33:05.312Z,8.84
2023-05-13T01:35:32.639Z,8.89
2023-05-13T01:38:00.846Z,8.94
2023-05-13T01:40:32.779Z,8.98
2023-05-13T01:43:06.265Z,9.04
2023-05-13T01:45:33.792Z,9.08
2023-05-13T01:48:01.900Z,9.15
2023-05-13T01:50:38.988Z,9.22
2023-05-13T01:53:07.003Z,9.26
2023-05-13T01:55:35.114Z,9.28
2023-05-13T01:58:04.360Z,9.34
2023-05-13T02:00:31.578Z,9.36
2023-05-13T02:02:58.957Z,9.37
2023-05-13T02:05:26.135Z,9.39
2023-05-13T02:07:54.964Z,9.43
2023-05-13T02:10:22.407Z,9.47
2023-05-13T02:12:49.836Z,9.50
2023-05-13T02:15:17.174Z,9.54
2023-05-13T02:17:44.661Z,9.57
2023-05-13T02:20:12.914Z,9.59
2023-05-13T02:22:40.148Z,9.62
2023-05-13T02:25:08.758Z,9.66
2023-05-13T02:27:37.693Z,9.71
2023-05-13T02:30:05.550Z,9.77
2023-05-13T02:32:33.853Z,9.78
2023-05-13T02:35:01.055Z,9.81
2023-05-13T02:37:28.207Z,9.85
2023-05-13T02:40:02.030Z,9.91
2023-05-13T02:42:29.722Z,9.94
2023-05-13T02:44:57.651Z,10.00
2023-05-13T02:47:26.571Z,10.02
2023-05-13T02:49:56.151Z,10.07
2023-05-13T02:52:23.704Z,10.11
2023-05-13T02:54:50.921Z,10.16
2023-05-13T02:57:18.263Z,10.18
2023-05-13T02:59:46.245Z,10.23
2023-05-13T03:02:13.506Z,10.26
2023-05-13T03:04:41.368Z,10.30
2023-05-13T03:07:08.762Z,10.34
2023-05-13T03:09:39.125Z,10.40
2023-05-13T03:12:08.074Z,10.46
2023-05-13T03:14:36.967Z,10.54
2023-05-13T03:17:04.670Z,10.60
2023-05-13T03:19:33.939Z,10.67
2023-05-13T03:22:01.148Z,10.75
2023-05-13T03:24:28.314Z,10.85
2023-05-13T03:26:56.652Z,10.97
2023-05-13T05:34:18.189Z,18.75
2023-05-13T05:36:45.425Z,18.91
2023-05-13T05:39:13.736Z,19.04
2023-05-13T05:41:40.780Z,19.18
2023-05-13T05:44:08.127Z,19.32
2023-05-13T05:46:35.218Z,19.44
2023-05-13T05:49:09.469Z,19.66
2023-05-13T05:51:37.453Z,19.88
2023-05-13T05:54:05.925Z,19.94
2023-05-13T05:56:33.104Z,20.06
2023-05-13T05:59:00.488Z,20.20
2023-05-13T06:01:33.941Z,20.35
2023-05-13T06:04:01.267Z,20.36
2023-05-13T06:06:29.914Z,20.32
2023-05-13T06:08:57.057Z,20.39
2023-05-13T06:11:24.045Z,20.53
2023-05-13T06:13:51.541Z,20.58
2023-05-13T06:16:18.708Z,20.66
2023-05-13T06:18:45.823Z,20.71
2023-05-13T06:21:12.913Z,20.75
2023-05-13T06:23:40.577Z,20.94
2023-05-13T06:26:07.769Z,21.02
2023-05-13T06:28:35.859Z,21.17
2023-05-13T06:31:03.059Z,21.33
2023-05-13T06:33:30.178Z,21.40
2023-05-13T06:35:57.367Z,21.42
2023-05-13T06:38:25.847Z,21.50
2023-05-13T06:40:56.595Z,21.55
2023-05-13T06:43:30.927Z,21.65
2023-05-13T06:46:01.956Z,21.73
2023-05-13T06:48:29.681Z,21.85
2023-05-13T06:50:57.445Z,21.96
2023-05-13T06:53:24.499Z,22.08
2023-05-13T06:55:51.592Z,22.12
2023-05-13T06:58:18.637Z,22.22
2023-05-13T07:00:47.091Z,22.36
2023-05-13T07:03:14.258Z,22.38
2023-05-13T07:05:41.309Z,22.41
2023-05-13T07:08:08.790Z,22.48
2023-05-13T07:10:36.276Z,22.66
2023-05-13T07:13:03.533Z,22.78
2023-05-13T07:15:30.822Z,22.94
2023-05-13T07:17:57.869Z,23.03
2023-05-13T07:20:26.689Z,23.02
2023-05-13T07:22:54.081Z,22.98
2023-05-13T07:25:21.304Z,23.02
2023-05-13T07:27:48.631Z,23.15
2023-05-13T07:30:16.036Z,23.15
2023-05-13T07:32:43.565Z,23.16
2023-05-13T07:35:10.934Z,23.21
2023-05-13T07:37:38.419Z,23.36
2023-05-13T07:40:06.534Z,23.45
2023-05-13T07:42:33.825Z,23.56
2023-05-13T07:45:00.918Z,23.57
2023-05-13T07:47:29.391Z,23.48
2023-05-13T07:49:56.724Z,23.46
2023-05-13T07:52:23.837Z,23.39
2023-05-13T07:54:50.955Z,23.38
2023-05-13T07:57:18.802Z,23.38
2023-05-13T07:59:49.458Z,23.45
2023-05-13T08:02:16.564Z,23.50
2023-05-13T08:04:44.031Z,23.63
2023-05-13T08:07:11.928Z,23.75
2023-05-13T08:09:39.108Z,23.82
2023-05-13T08:12:06.566Z,23.82
2023-05-13T08:14:33.631Z,23.87
2023-05-13T08:17:01.150Z,23.89
2023-05-13T08:19:28.298Z,23.79
2023-05-13T08:21:55.500Z,23.83
2023-05-13T08:24:22.516Z,23.71
2023-05-13T08:26:49.621Z,23.69
2023-05-13T08:29:16.685Z,23.77
2023-05-13T08:31:43.756Z,23.85
2023-05-13T08:34:11.129Z,23.90
2023-05-13T08:36:38.172Z,23.97
2023-05-13T08:39:05.375Z,23.97
2023-05-13T08:41:32.534Z,24.05
2023-05-13T08:44:00.535Z,24.07
2023-05-13T08:46:27.946Z,23.96
2023-05-13T08:48:55.935Z,23.82
2023-05-13T08:51:23.009Z,23.79
2023-05-13T08:53:50.512Z,23.84
2023-05-13T08:56:17.565Z,23.87
2023-05-13T08:58:44.647Z,23.80
2023-05-13T09:01:11.777Z,23.79
2023-05-13T09:03:50.439Z,23.72
2023-05-13T09:06:17.576Z,23.77
2023-05-13T09:08:44.651Z,23.83
2023-05-13T09:11:17.434Z,23.98
2023-05-13T09:13:44.855Z,23.97
2023-05-13T09:16:14.305Z,24.04
2023-05-13T09:18:42.242Z,23.99
2023-05-13T09:21:23.697Z,24.05
2023-05-13T09:23:53.413Z,24.12
2023-05-13T09:26:29.857Z,24.08
2023-05-13T09:29:20.718Z,23.93
2023-05-13T09:31:55.330Z,23.85
2023-05-13T09:34:26.292Z,23.87
2023-05-13T09:37:12.891Z,23.88
2023-05-13T09:39:41.663Z,23.93
2023-05-13T09:42:16.633Z,23.96
2023-05-13T09:44:44.672Z,23.82
2023-05-13T09:47:13.030Z,23.74
2023-05-13T09:49:41.358Z,23.78
2023-05-13T09:52:11.352Z,23.74
2023-05-13T09:54:38.875Z,23.81
2023-05-13T09:57:06.454Z,23.85
2023-05-13T09:59:36.461Z,24.00
2023-05-13T10:02:07.619Z,24.06
2023-05-13T10:04:34.830Z,24.15
2023-05-13T10:07:03.376Z,24.19
2023-05-13T10:09:39.466Z,24.15
2023-05-13T10:12:07.758Z,24.15
2023-05-13T10:14:37.007Z,24.24
2023-05-13T10:17:05.445Z,24.33
2023-05-13T10:19:32.532Z,24.33
2023-05-13T10:21:59.817Z,24.35
2023-05-13T10:24:29.073Z,24.30
2023-05-13T10:26:56.395Z,24.32
2023-05-13T10:29:23.784Z,24.42
2023-05-13T10:31:50.914Z,24.40
2023-05-13T10:34:18.167Z,24.39
2023-05-13T10:36:48.137Z,24.42
2023-05-13T10:39:33.471Z,24.44
2023-05-13T10:42:31.145Z,24.51
2023-05-13T10:44:58.402Z,24.64
2023-05-13T10:47:25.564Z,24.66
2023-05-13T10:49:55.559Z,24.61
2023-05-13T10:52:22.618Z,24.56
2023-05-13T10:55:05.207Z,24.60
2023-05-13T10:57:37.094Z,24.61
2023-05-13T11:00:17.122Z,24.57
2023-05-13T11:02:44.455Z,24.53
2023-05-13T11:05:19.710Z,24.53
2023-05-13T11:07:57.820Z,24.51
2023-05-13T11:10:30.180Z,24.32
2023-05-13T11:13:36.000Z,24.22
2023-05-13T11:16:04.544Z,24.18
2023-05-13T11:18:32.989Z,24.08
2023-05-13T11:21:05.614Z,24.08
2023-05-13T11:23:34.930Z,24.11
2023-05-13T11:26:17.217Z,24.19
2023-05-13T11:29:16.862Z,24.13
2023-05-13T11:31:53.152Z,24.15
2023-05-13T11:34:20.600Z,24.17
2023-05-13T11:36:49.848Z,24.18
2023-05-13T11:39:21.649Z,24.11
2023-05-13T11:41:50.315Z,24.12
2023-05-13T11:44:21.702Z,24.19
2023-05-13T11:46:55.640Z,24.24
2023-05-13T11:49:41.969Z,24.29
2023-05-13T11:52:19.442Z,24.34
2023-05-13T11:54:48.675Z,24.30
2023-05-13T11:57:22.924Z,24.08
2023-05-13T11:59:57.759Z,24.02
2023-05-13T12:02:33.745Z,24.00
2023-05-13T12:05:02.486Z,23.89
2023-05-13T12:07:31.066Z,23.90
2023-05-13T12:10:59.841Z,23.91
2023-05-13T12:13:26.837Z,23.98
2023-05-13T12:15:53.948Z,24.06
2023-05-13T12:18:21.048Z,24.00
2023-05-13T12:20:48.090Z,23.96
2023-05-13T12:23:15.633Z,23.95
2023-05-13T12:25:43.888Z,24.06
2023-05-13T12:28:22.087Z,24.01
2023-05-13T12:30:59.189Z,23.98
2023-05-13T12:33:27.496Z,23.95
2023-05-13T12:36:00.362Z,23.77
2023-05-13T12:38:27.511Z,23.61
2023-05-13T12:40:55.217Z,23.48
2023-05-13T12:43:23.150Z,23.43
2023-05-13T12:45:54.371Z,23.35
2023-05-13T12:48:24.030Z,23.30
2023-05-13T12:50:51.657Z,23.31
2023-05-13T12:53:18.773Z,23.37
2023-05-13T12:55:45.738Z,23.44
2023-05-13T12:58:13.296Z,23.48
2023-05-13T13:00:40.502Z,23.47
2023-05-13T13:03:08.390Z,23.38
2023-05-13T13:05:35.878Z,23.28
2023-05-13T13:08:05.491Z,23.20
2023-05-13T13:10:32.989Z,23.13
2023-05-13T13:13:00.178Z,23.06
2023-05-13T13:15:27.484Z,23.01
2023-05-13T13:17:54.651Z,22.98
2023-05-13T13:20:22.483Z,22.93
2023-05-13T13:22:49.615Z,22.88
2023-05-13T13:25:16.775Z,22.87
2023-05-13T13:27:44.075Z,22.87
2023-05-13T13:30:11.834Z,22.87
2023-05-13T13:32:38.983Z,22.88
2023-05-13T13:35:06.425Z,22.81
2023-05-13T13:37:33.965Z,22.76
2023-05-13T13:40:02.800Z,22.75
2023-05-13T13:42:43.504Z,22.73
2023-05-13T13:45:13.224Z,22.67
2023-05-13T13:47:40.999Z,22.68
2023-05-13T13:50:08.308Z,22.59
2023-05-13T13:52:35.557Z,22.46
2023-05-13T13:55:02.634Z,22.38
2023-05-13T13:57:31.352Z,22.34
2023-05-13T13:59:58.578Z,22.30
2023-05-13T14:02:25.809Z,22.25
2023-05-13T14:04:54.050Z,22.20
2023-05-13T14:07:21.231Z,22.16
2023-05-13T14:09:49.918Z,22.10
2023-05-13T14:12:17.351Z,22.03
2023-05-13T14:14:44.587Z,21.99
2023-05-13T14:17:12.518Z,21.93
2023-05-13T14:19:41.355Z,21.91
2023-05-13T14:22:08.408Z,21.90
2023-05-13T14:24:35.427Z,21.90
2023-05-13T14:27:02.481Z,21.85
2023-05-13T14:29:29.600Z,21.83
2023-05-13T14:31:56.845Z,21.77
2023-05-13T14:34:23.897Z,21.70
2023-05-13T14:36:51.471Z,21.65
2023-05-13T14:39:18.620Z,21.62
2023-05-13T14:41:46.346Z,21.55
2023-05-13T14:44:14.140Z,21.48
2023-05-13T14:46:41.830Z,21.47
2023-05-13T14:49:09.033Z,21.45
2023-05-13T14:51:36.172Z,21.39
2023-05-13T14:54:03.523Z,21.33
2023-05-13T14:56:31.035Z,21.26
2023-05-13T14:58:58.137Z,21.20
2023-05-13T15:01:25.435Z,21.14
2023-05-13T15:03:52.629Z,21.11
2023-05-13T15:06:22.641Z,21.08
2023-05-13T15:08:49.866Z,21.05
2023-05-13T15:11:17.353Z,21.01
2023-05-13T15:13:44.456Z,20.98
2023-05-13T15:16:11.905Z,20.93
2023-05-13T15:18:39.463Z,20.91
2023-05-13T15:21:06.669Z,20.87
2023-05-13T15:23:34.209Z,20.83
2023-05-13T15:26:01.199Z,20.79
2023-05-13T15:28:29.376Z,20.74
2023-05-13T15:30:56.523Z,20.72
2023-05-13T15:33:23.698Z,20.68
2023-05-13T15:35:51.042Z,20.64
2023-05-13T15:38:18.211Z,20.60
2023-05-13T15:40:47.523Z,20.55
2023-05-13T15:43:14.630Z,20.50
2023-05-13T15:45:41.688Z,20.47
2023-05-13T15:48:09.039Z,20.41
2023-05-13T15:50:36.368Z,20.35
2023-05-13T15:53:03.351Z,20.26
2023-05-13T15:55:32.059Z,20.23
2023-05-13T15:57:59.237Z,20.17
2023-05-13T16:00:26.585Z,20.09
2023-05-13T16:02:53.689Z,20.03
2023-05-13T16:05:20.828Z,19.96
2023-05-13T16:07:48.058Z,19.93
2023-05-13T16:10:15.523Z,19.85
2023-05-13T16:12:43.260Z,19.80
2023-05-13T16:15:11.381Z,19.74
2023-05-13T16:17:38.782Z,19.68
2023-05-13T16:20:06.687Z,19.61
2023-05-13T16:22:37.894Z,19.58
2023-05-13T16:25:09.608Z,19.54
2023-05-13T16:27:40.653Z,19.45
2023-05-13T16:30:13.701Z,19.35
2023-05-13T16:32:40.918Z,19.30
2023-05-13T16:35:10.146Z,19.26
2023-05-13T16:37:37.307Z,19.20
2023-05-13T16:40:05.152Z,19.15
2023-05-13T16:42:32.445Z,19.07
2023-05-13T16:44:59.644Z,18.97
2023-05-13T16:47:26.821Z,18.93
2023-05-13T16:49:56.230Z,18.82
2023-05-13T16:52:24.220Z,18.73
2023-05-13T16:54:51.587Z,18.65
2023-05-13T16:57:19.440Z,18.58
2023-05-13T16:59:46.495Z,18.49
2023-05-13T17:02:14.319Z,18.45
2023-05-13T17:04:41.585Z,18.39
2023-05-13T17:07:09.743Z,18.33
2023-05-13T17:09:37.482Z,18.26
2023-05-13T17:12:04.970Z,18.16
2023-05-13T17:14:32.115Z,18.09
2023-05-13T17:16:59.236Z,18.01
2023-05-13T17:19:26.393Z,17.91
2023-05-13T17:21:53.432Z,17.80
2023-05-13T17:24:22.461Z,17.69
2023-05-13T17:26:50.126Z,17.60
2023-05-13T17:29:17.392Z,17.50
2023-05-13T17:31:45.207Z,17.41
2023-05-13T17:34:12.693Z,17.34
2023-05-13T17:36:39.767Z,17.26
2023-05-13T17:39:06.825Z,17.16
2023-05-13T17:41:33.926Z,17.06
2023-05-13T17:44:01.112Z,16.95
2023-05-13T17:46:28.246Z,16.81
2023-05-13T17:48:55.906Z,16.66
2023-05-13T17:51:23.582Z,16.57
2023-05-13T17:53:53.717Z,16.54
2023-05-13T17:56:21.688Z,16.54
2023-05-13T17:58:51.723Z,16.50
2023-05-13T18:01:21.939Z,16.45
2023-05-13T18:03:49.343Z,16.44
2023-05-13T18:06:16.603Z,16.42
2023-05-13T18:08:43.943Z,16.41
2023-05-13T18:11:12.199Z,16.39
2023-05-13T18:13:39.400Z,16.36
2023-05-13T18:16:09.228Z,16.31
2023-05-13T18:18:37.001Z,16.25
2023-05-13T18:21:04.211Z,16.21
2023-05-13T18:23:32.884Z,16.14
2023-05-13T18:25:59.956Z,16.12
2023-05-13T18:28:27.036Z,16.07
2023-05-13T18:30:54.377Z,16.02
2023-05-13T18:33:21.918Z,15.96
2023-05-13T18:35:49.064Z,15.87
2023-05-13T18:38:16.284Z,15.78
2023-05-13T18:40:43.415Z,15.72
2023-05-13T18:43:10.656Z,15.67
2023-05-13T18:45:37.791Z,15.60
2023-05-13T18:48:08.324Z,15.53
2023-05-13T18:50:35.558Z,15.52
2023-05-13T18:53:02.865Z,15.49
2023-05-13T18:55:30.000Z,15.43
2023-05-13T18:57:57.149Z,15.41
2023-05-13T19:00:24.453Z,15.41
2023-05-13T19:02:52.056Z,15.40
2023-05-13T19:05:20.504Z,15.36
2023-05-13T19:07:47.851Z,15.28
2023-05-13T19:10:16.086Z,15.24
2023-05-13T19:12:43.173Z,15.16
2023-05-13T19:15:11.507Z,15.11
2023-05-13T19:17:40.561Z,15.07
2023-05-13T19:20:08.687Z,15.00
2023-05-13T19:22:35.839Z,14.94
2023-05-13T19:25:03.240Z,14.87
2023-05-13T19:27:31.739Z,14.83
2023-05-13T19:29:59.248Z,14.83
2023-05-13T19:32:26.466Z,14.85
2023-05-13T19:34:53.639Z,14.84
2023-05-13T19:37:20.746Z,14.82
2023-05-13T19:39:48.050Z,14.81
2023-05-13T19:42:15.198Z,14.80
2023-05-13T19:44:42.646Z,14.77
2023-05-13T19:47:09.763Z,14.73
2023-05-13T19:49:37.018Z,14.71
2023-05-13T19:52:04.321Z,14.71
2023-05-13T19:54:31.605Z,14.66
2023-05-13T19:56:58.809Z,14.67
2023-05-13T19:59:25.844Z,14.64
2023-05-13T20:01:53.204Z,14.61
2023-05-13T20:04:20.501Z,14.58
2023-05-13T20:06:47.805Z,14.59
2023-05-13T20:09:15.029Z,14.60
2023-05-13T20:11:42.097Z,14.58
2023-05-13T20:14:09.229Z,14.55
2023-05-13T20:16:37.053Z,14.55
2023-05-13T20:19:04.514Z,14.52
2023-05-13T20:21:32.763Z,14.51
2023-05-13T20:24:00.012Z,14.50
2023-05-13T20:26:27.487Z,14.47
2023-05-13T20:28:54.540Z,14.47
2023-05-13T20:31:21.616Z,14.47
2023-05-13T20:33:48.773Z,14.49
2023-05-13T20:36:15.972Z,14.49
2023-05-13T20:38:43.397Z,14.49
2023-05-13T20:41:10.491Z,14.45
2023-05-13T20:43:37.644Z,14.42
2023-05-13T20:46:07.047Z,14.37
2023-05-13T20:48:35.271Z,14.33
2023-05-13T20:51:03.877Z,14.26
2023-05-13T20:53:34.501Z,14.21
2023-05-13T20:56:02.571Z,14.16
2023-05-13T20:58:31.096Z,14.10
2023-05-13T21:00:59.073Z,14.09
2023-05-13T21:03:26.542Z,14.01
2023-05-13T21:05:53.581Z,13.96
2023-05-13T21:08:20.670Z,13.88
2023-05-13T21:10:47.919Z,13.81
2023-05-13T21:13:15.155Z,13.79
2023-05-13T21:15:42.442Z,13.77
2023-05-13T21:18:09.701Z,13.76
2023-05-13T21:20:36.856Z,13.77
2023-05-13T21:23:04.104Z,13.74
2023-05-13T21:25:31.279Z,13.70
2023-05-13T21:27:58.551Z,13.63
2023-05-13T21:30:26.076Z,13.62
2023-05-13T21:32:53.310Z,13.53
2023-05-13T21:35:20.722Z,13.46
2023-05-13T21:37:48.777Z,13.40
2023-05-13T21:40:16.737Z,13.31
2023-05-13T21:42:43.899Z,13.22
2023-05-13T21:45:12.004Z,13.13
2023-05-13T21:47:39.441Z,13.05
2023-05-13T21:50:07.932Z,13.00
2023-05-13T21:52:35.024Z,12.93
2023-05-13T21:55:02.096Z,12.94
2023-05-13T21:57:32.877Z,12.95
2023-05-13T21:59:59.895Z,12.93
2023-05-13T22:02:27.166Z,12.90
2023-05-13T22:04:54.343Z,12.83
2023-05-13T22:07:21.356Z,12.74
2023-05-13T22:09:50.331Z,12.68
2023-05-13T22:12:17.700Z,12.62
2023-05-13T22:14:45.395Z,12.60
2023-05-13T22:17:12.758Z,12.56
2023-05-13T22:19:39.986Z,12.51
2023-05-13T22:22:07.123Z,12.38
2023-05-13T22:24:34.120Z,12.34
2023-05-13T22:27:01.351Z,12.35
2023-05-13T22:29:28.519Z,12.29
2023-05-13T22:31:57.558Z,12.25
2023-05-13T22:34:26.163Z,12.18
2023-05-13T22:36:53.118Z,12.14
2023-05-13T22:39:20.412Z,12.11
2023-05-13T22:41:47.690Z,12.07
2023-05-13T22:44:14.727Z,12.06
2023-05-13T22:46:41.782Z,12.05
2023-05-13T22:49:10.496Z,12.04
2023-05-13T22:51:37.729Z,11.99
2023-05-13T22:54:04.815Z,11.93
2023-05-13T22:56:31.785Z,11.86
2023-05-13T22:58:59.387Z,11.84
2023-05-13T23:01:26.332Z,11.82
2023-05-13T23:03:53.518Z,11.79
2023-05-13T23:06:20.805Z,11.75
2023-05-13T23:08:48.482Z,11.69
2023-05-13T23:11:15.749Z,11.62
2023-05-13T23:13:42.734Z,11.60
2023-05-13T23:16:09.954Z,11.58
2023-05-13T23:18:37.325Z,11.56
2023-05-13T23:21:04.798Z,11.51
2023-05-13T23:23:32.025Z,11.50
2023-05-13T23:25:59.091Z,11.47
2023-05-13T23:28:26.099Z,11.42
2023-05-13T23:30:54.377Z,11.39
2023-05-13T23:33:21.413Z,11.38
2023-05-13T23:35:54.599Z,11.40
2023-05-13T23:38:21.859Z,11.36
2023-05-13T23:40:48.924Z,11.27
2023-05-13T23:43:16.265Z,11.22
2023-05-13T23:45:43.431Z,11.21
2023-05-13T23:48:10.679Z,11.19
2023-05-13T23:50:37.996Z,11.15
2023-05-13T23:53:05.517Z,11.10
2023-05-13T23:55:32.496Z,11.05
2023-05-13T23:57:59.559Z,11.02
